Time;durP1;ratioP1;P1;durP2;ratioP2;P2;SDS_P1;SDS_P2;PMS_P1;PMS_P2;Temp;Humidity;BMP_temperature;BMP_pressure;BME280_temperature;BME280_humidity;BME280_pressure;Samples;Min_cycle;Max_cycle;Signal;HPM_P1;HPM_P2
2021/12/04 00:02:05;;;;;;;10.95;6.25;;;;;;;1.83;56.98;98995.22;4360156;32;34883;-83
2021/12/04 00:04:37;;;;;;;12.68;6.40;;;;;;;2.00;56.82;98987.41;4361663;32;34101;-83
2021/12/04 00:07:07;;;;;;;10.52;5.87;;;;;;;1.95;56.94;98990.62;4347492;32;34503;-83
2021/12/04 00:09:35;;;;;;;10.80;5.62;;;;;;;2.03;56.48;98990.97;4347558;32;34473;-84
2021/12/04 00:12:05;;;;;;;13.60;6.65;;;;;;;1.87;56.92;98983.44;4347815;32;34197;-83
2021/12/04 00:14:35;;;;;;;12.73;6.68;;;;;;;1.90;56.57;98969.09;4364920;32;34007;-85
2021/12/04 00:17:04;;;;;;;12.37;6.53;;;;;;;1.89;56.67;98975.00;4361313;32;33313;-84
2021/12/04 00:19:32;;;;;;;11.80;5.97;;;;;;;2.00;56.48;98974.59;4360550;32;33897;-85
2021/12/04 00:22:00;;;;;;;11.63;6.80;;;;;;;1.98;56.47;98976.25;4370530;32;34320;-85
2021/12/04 00:24:27;;;;;;;12.40;7.20;;;;;;;1.85;56.80;98969.69;4353223;32;33955;-85
2021/12/04 00:26:55;;;;;;;12.70;6.37;;;;;;;2.00;55.90;98962.69;4360790;32;34584;-85
2021/12/04 00:29:23;;;;;;;13.70;5.97;;;;;;;1.94;56.17;98957.34;4361109;32;34617;-85
2021/12/04 00:31:58;;;;;;;11.15;6.97;;;;;;;2.04;55.58;98958.59;4348877;32;34141;-85
2021/12/04 00:34:27;;;;;;;12.50;7.18;;;;;;;1.86;56.30;98962.13;4360711;32;34406;-85
2021/12/04 00:37:19;;;;;;;14.02;6.82;;;;;;;1.99;55.88;98960.09;4335410;32;32323;-85
2021/12/04 00:50:52;;;;;;;12.88;6.57;;;;;;;1.58;57.27;98959.13;4373121;32;34877;-85
2021/12/04 00:53:20;;;;;;;12.23;6.12;;;;;;;1.52;57.67;98956.31;4360607;32;34031;-84
2021/12/04 00:55:47;;;;;;;12.10;5.72;;;;;;;1.57;57.53;98952.28;4360745;32;34776;-85
2021/12/04 00:58:14;;;;;;;12.20;6.20;;;;;;;1.78;57.24;98958.34;4360754;32;33237;-84
2021/12/04 01:00:42;;;;;;;13.27;6.70;;;;;;;1.77;57.16;98959.13;4362054;32;34850;-84
2021/12/04 01:03:10;;;;;;;12.45;6.00;;;;;;;1.87;56.90;98958.75;4360634;32;34188;-85
2021/12/04 01:05:39;;;;;;;11.73;6.62;;;;;;;1.66;57.46;98957.78;4335095;32;33579;-85
2021/12/04 01:08:07;;;;;;;12.90;7.07;;;;;;;1.74;57.60;98964.09;4360749;32;34057;-84
2021/12/04 01:10:35;;;;;;;12.48;6.22;;;;;;;1.74;57.61;98961.56;4361709;32;34499;-85
2021/12/04 01:13:21;;;;;;;10.05;5.80;;;;;;;1.66;57.10;98962.91;4361157;32;34554;-84
2021/12/04 01:15:49;;;;;;;13.32;5.72;;;;;;;1.57;57.99;98948.03;4347326;32;33960;-84
2021/12/04 01:18:16;;;;;;;9.95;5.28;;;;;;;1.59;58.04;98955.75;4360422;32;34420;-84
2021/12/04 01:20:44;;;;;;;16.50;8.15;;;;;;;1.97;56.41;98954.91;4362260;32;34714;-84
2021/12/04 01:23:12;;;;;;;15.35;8.20;;;;;;;1.37;57.91;98959.06;4360496;32;33984;-85
2021/12/04 01:25:41;;;;;;;15.40;8.90;;;;;;;1.54;57.45;98954.69;4360411;32;35228;-85
2021/12/04 01:28:09;;;;;;;13.07;6.30;;;;;;;1.79;56.65;98959.22;4359927;32;33407;-85
2021/12/04 01:30:37;;;;;;;15.43;7.57;;;;;;;1.59;57.56;98958.31;4360260;32;34785;-85
2021/12/04 01:33:05;;;;;;;15.93;8.10;;;;;;;1.74;57.12;98953.88;4374310;32;33355;-85
2021/12/04 01:35:32;;;;;;;14.10;7.97;;;;;;;1.86;56.38;98956.13;4375527;32;33601;-85
2021/12/04 01:38:00;;;;;;;12.48;7.55;;;;;;;1.89;55.91;98956.25;4374718;32;33582;-84
2021/12/04 01:40:28;;;;;;;15.75;8.50;;;;;;;1.90;55.61;98952.91;4374885;32;33790;-84
2021/12/04 01:42:55;;;;;;;15.82;7.90;;;;;;;1.76;56.24;98944.63;4373763;32;33994;-84
2021/12/04 01:45:23;;;;;;;16.65;7.95;;;;;;;1.65;56.38;98945.81;4375000;32;34298;-84
2021/12/04 01:47:58;;;;;;;18.42;8.10;;;;;;;1.59;56.67;98948.09;4374982;32;34505;-85
2021/12/04 01:50:29;;;;;;;14.87;7.43;;;;;;;1.52;57.09;98943.56;4374843;32;33916;-83
2021/12/04 01:52:59;;;;;;;15.55;7.32;;;;;;;1.43;56.90;98949.09;4345553;32;34371;-84
2021/12/04 01:55:30;;;;;;;16.27;6.78;;;;;;;1.34;57.42;98947.00;4347070;32;33640;-85
2021/12/04 01:58:00;;;;;;;10.60;6.20;;;;;;;1.61;56.24;98943.94;4346764;32;33365;-85
2021/12/04 02:00:30;;;;;;;13.40;6.75;;;;;;;1.36;56.58;98936.84;4360115;32;34017;-84
2021/12/04 02:02:58;;;;;;;11.80;6.28;;;;;;;1.64;56.07;98937.28;4347890;32;33392;-84
2021/12/04 02:05:26;;;;;;;13.45;7.45;;;;;;;1.60;55.77;98934.53;4375165;32;33575;-85
2021/12/04 02:07:53;;;;;;;12.37;7.10;;;;;;;1.56;55.93;98940.31;4375077;32;32954;-84
2021/12/04 02:10:21;;;;;;;14.10;7.45;;;;;;;1.26;56.87;98930.47;4374983;32;34018;-85
2021/12/04 02:12:49;;;;;;;14.87;7.55;;;;;;;1.36;56.62;98934.28;4348368;32;34007;-84
2021/12/04 02:15:17;;;;;;;12.82;7.18;;;;;;;1.36;56.38;98937.72;4374854;32;34673;-85
2021/12/04 02:17:46;;;;;;;14.00;7.82;;;;;;;1.32;56.21;98928.19;4374992;32;33014;-85
2021/12/04 02:20:21;;;;;;;14.52;7.15;;;;;;;1.20;56.54;98920.84;4348162;32;34852;-85
2021/12/04 02:22:49;;;;;;;12.18;7.03;;;;;;;1.15;57.11;98914.66;4359863;32;33929;-85
2021/12/04 02:25:18;;;;;;;11.50;6.37;;;;;;;1.24;56.82;98915.88;4361303;32;33966;-85
2021/12/04 02:27:45;;;;;;;13.68;7.05;;;;;;;1.21;56.75;98908.94;4361230;32;33627;-85
2021/12/04 02:30:21;;;;;;;12.60;7.20;;;;;;;1.24;57.14;98913.31;4348249;32;34297;-84
2021/12/04 02:32:49;;;;;;;12.40;6.60;;;;;;;1.30;57.39;98906.81;4369903;32;35054;-84
2021/12/04 02:35:18;;;;;;;11.27;6.07;;;;;;;1.46;56.84;98909.25;4360534;32;33530;-84
2021/12/04 02:37:46;;;;;;;12.48;6.43;;;;;;;1.46;56.69;98914.34;4359356;32;33572;-85
2021/12/04 02:40:18;;;;;;;11.48;5.68;;;;;;;1.38;56.67;98915.69;4361110;32;34618;-85
2021/12/04 02:42:47;;;;;;;11.30;5.22;;;;;;;1.31;56.96;98900.91;4373763;32;34409;-85
2021/12/04 02:45:14;;;;;;;13.68;5.70;;;;;;;1.36;56.93;98899.41;4360497;32;33850;-83
2021/12/04 02:47:42;;;;;;;8.52;4.62;;;;;;;1.34;57.20;98893.38;4346253;32;34393;-84
2021/12/04 02:50:11;;;;;;;9.50;5.07;;;;;;;1.37;57.66;98897.75;4348240;32;33799;-85
2021/12/04 02:52:41;;;;;;;8.45;4.47;;;;;;;1.47;57.49;98897.34;4360485;32;35045;-85
2021/12/04 02:55:09;;;;;;;8.90;4.57;;;;;;;1.32;57.78;98894.09;4363070;32;33434;-85
2021/12/04 02:57:43;;;;;;;7.53;4.68;;;;;;;1.51;57.32;98888.13;4361967;32;32038;-85
2021/12/04 03:00:24;;;;;;;8.73;4.85;;;;;;;1.39;57.24;98891.91;4348729;32;34060;-85
2021/12/04 03:02:52;;;;;;;9.35;4.95;;;;;;;1.54;57.10;98891.69;4375064;32;34969;-83
2021/12/04 03:05:28;;;;;;;9.82;5.53;;;;;;;1.54;57.17;98896.81;4362441;32;34262;-84
2021/12/04 03:07:58;;;;;;;8.63;5.18;;;;;;;1.61;56.96;98892.84;4347757;32;32687;-85
2021/12/04 03:10:27;;;;;;;9.00;5.32;;;;;;;1.57;57.00;98898.63;4361796;32;33673;-85
2021/12/04 03:12:55;;;;;;;8.68;4.87;;;;;;;1.55;56.75;98893.44;4374863;32;34965;-85
2021/12/04 03:15:23;;;;;;;12.85;6.22;;;;;;;1.31;57.33;98892.38;4362292;32;33996;-83
2021/12/04 03:17:51;;;;;;;10.63;5.68;;;;;;;1.53;56.91;98896.75;4361477;32;33453;-84
2021/12/04 03:20:19;;;;;;;9.05;5.30;;;;;;;1.72;56.28;98896.75;4353050;32;34597;-85
2021/12/04 03:22:48;;;;;;;11.00;6.37;;;;;;;1.61;56.53;98892.84;4360503;32;33744;-85
2021/12/04 03:25:18;;;;;;;11.73;6.28;;;;;;;1.64;56.03;98888.75;4361573;32;34279;-84
2021/12/04 03:27:49;;;;;;;14.65;7.12;;;;;;;1.55;56.22;98890.00;4347856;32;33319;-85
2021/12/04 03:41:06;;;;;;;14.32;6.18;;;;;;;1.46;55.73;98858.16;4361367;32;33649;-84
2021/12/04 03:44:09;;;;;;;13.45;6.50;;;;;;;1.33;56.20;98847.34;4273267;33;32685;-85
2021/12/04 03:46:37;;;;;;;11.18;6.37;;;;;;;1.01;57.06;98841.66;4274183;33;33525;-84
2021/12/04 03:49:04;;;;;;;9.90;6.28;;;;;;;1.36;56.21;98838.12;4273905;33;33624;-85
2021/12/04 03:51:32;;;;;;;11.18;6.65;;;;;;;1.26;56.16;98835.13;4285672;33;33889;-85
2021/12/04 03:53:59;;;;;;;15.38;7.12;;;;;;;1.11;57.10;98833.63;4274344;33;34381;-85
2021/12/04 03:56:28;;;;;;;12.60;6.75;;;;;;;1.11;57.18;98831.06;4285527;33;33851;-84
2021/12/04 03:58:56;;;;;;;12.48;7.20;;;;;;;1.09;57.56;98835.22;4285515;33;33521;-85
2021/12/04 04:01:23;;;;;;;12.02;7.32;;;;;;;1.17;57.39;98833.88;4277659;33;34573;-85
2021/12/04 04:03:51;;;;;;;10.90;7.37;;;;;;;1.23;56.39;98823.06;4299067;33;33954;-85
2021/12/04 04:06:19;;;;;;;11.52;6.60;;;;;;;1.01;57.00;98828.03;4300121;33;33509;-85
2021/12/04 04:08:46;;;;;;;11.80;6.97;;;;;;;1.02;57.21;98827.22;4343529;32;33551;-84
2021/12/04 04:11:14;;;;;;;13.23;7.07;;;;;;;1.04;57.34;98828.19;4361377;32;33542;-84
2021/12/04 04:13:44;;;;;;;13.00;6.75;;;;;;;1.07;56.59;98830.88;4349986;32;34875;-85
2021/12/04 04:16:12;;;;;;;15.40;7.43;;;;;;;1.01;57.05;98825.47;4347758;32;33913;-85
2021/12/04 04:18:40;;;;;;;16.37;8.05;;;;;;;1.06;57.19;98818.91;4347626;32;34450;-84
2021/12/04 04:21:07;;;;;;;16.23;9.20;;;;;;;1.07;57.06;98813.88;4363820;32;34836;-85
2021/12/04 04:23:34;;;;;;;16.17;9.02;;;;;;;1.11;57.02;98820.00;4361818;32;33899;-85
2021/12/04 04:26:02;;;;;;;20.20;10.75;;;;;;;1.02;56.83;98819.56;4347552;32;34190;-85
2021/12/04 04:28:30;;;;;;;19.05;11.63;;;;;;;0.93;57.17;98814.94;4361154;32;34272;-85
2021/12/04 04:30:57;;;;;;;24.63;11.52;;;;;;;0.90;58.05;98819.91;4349020;32;34621;-86
2021/12/04 04:33:25;;;;;;;22.40;12.32;;;;;;;0.90;58.25;98828.41;4363001;32;34035;-85
2021/12/04 04:36:12;;;;;;;19.35;10.63;;;;;;;1.12;57.64;98826.84;4361097;32;34172;-85
2021/12/04 04:38:47;;;;;;;25.40;13.30;;;;;;;1.13;57.33;98820.91;4354893;32;33567;-85
2021/12/04 04:58:12;;;;;;;22.25;12.52;;;;;;;0.96;56.97;98838.03;4371142;32;34119;-86
2021/12/04 05:11:56;;;;;;;23.52;12.70;;;;;;;0.76;57.72;98837.16;4362504;32;33220;-83
2021/12/04 05:14:24;;;;;;;24.48;11.65;;;;;;;0.89;57.12;98831.78;4348676;32;33576;-84
2021/12/04 05:16:59;;;;;;;25.05;11.48;;;;;;;0.91;56.23;98832.75;4364598;32;34375;-85
2021/12/04 05:19:38;;;;;;;19.58;10.88;;;;;;;0.71;57.04;98830.94;4361933;32;34763;-84
2021/12/04 05:22:09;;;;;;;22.77;11.60;;;;;;;0.61;57.52;98826.25;4361721;32;33463;-85
2021/12/04 05:24:37;;;;;;;25.52;11.82;;;;;;;0.66;56.93;98819.66;4346958;32;34745;-85
2021/12/04 05:27:04;;;;;;;22.80;12.35;;;;;;;0.62;57.10;98815.22;4365797;32;34306;-84
2021/12/04 05:29:32;;;;;;;20.85;12.50;;;;;;;0.57;57.61;98807.38;4361924;32;33758;-83
2021/12/04 05:32:01;;;;;;;19.37;11.52;;;;;;;0.51;57.81;98813.84;4362364;32;33539;-85
2021/12/04 05:34:29;;;;;;;28.65;14.18;;;;;;;0.51;57.60;98817.28;4334774;32;34153;-84
2021/12/04 05:36:58;;;;;;;20.95;11.40;;;;;;;0.50;57.69;98814.66;4364431;32;34303;-84
2021/12/04 05:39:25;;;;;;;21.80;11.48;;;;;;;0.57;57.59;98816.66;4361523;32;33710;-85
2021/12/04 05:41:54;;;;;;;23.48;11.85;;;;;;;0.49;57.41;98813.75;4374347;32;33661;-84
2021/12/04 05:44:25;;;;;;;18.73;10.85;;;;;;;0.54;57.64;98825.06;4375130;32;34020;-84
2021/12/04 05:47:10;;;;;;;15.95;9.98;;;;;;;0.51;57.75;98816.41;4360899;32;34968;-85
2021/12/04 05:52:21;;;;;;;17.27;9.40;;;;;;;0.21;59.25;98812.47;4349388;32;33509;-85
2021/12/04 05:57:35;;;;;;;17.67;9.32;;;;;;;0.41;58.84;98812.53;4367712;32;33934;-85
2021/12/04 06:00:24;;;;;;;19.08;9.15;;;;;;;0.35;58.84;98815.69;4374959;32;34516;-83
2021/12/04 06:02:52;;;;;;;18.85;9.45;;;;;;;0.25;59.03;98808.38;4371023;32;33336;-84
2021/12/04 06:05:19;;;;;;;18.15;9.68;;;;;;;0.37;58.62;98806.41;4375223;32;33753;-84
2021/12/04 06:07:46;;;;;;;17.17;9.02;;;;;;;0.60;57.93;98799.81;4361338;32;33727;-84
2021/12/04 06:10:14;;;;;;;19.55;9.52;;;;;;;0.38;58.41;98797.97;4373981;32;34051;-84
2021/12/04 06:12:42;;;;;;;20.35;8.52;;;;;;;0.06;60.32;98801.53;4369258;32;34176;-85
2021/12/04 06:15:09;;;;;;;17.15;9.05;;;;;;;0.32;59.60;98797.69;4361487;32;34692;-85
2021/12/04 06:17:37;;;;;;;15.02;8.38;;;;;;;0.53;58.85;98794.38;4361673;32;33637;-84
2021/12/04 06:22:53;;;;;;;18.83;10.48;;;;;;;0.35;59.49;98785.09;4373549;32;33941;-85
2021/12/04 06:25:24;;;;;;;15.73;9.38;;;;;;;0.45;59.28;98796.56;4376903;32;33501;-84
2021/12/04 06:27:52;;;;;;;22.95;9.77;;;;;;;0.56;58.82;98797.06;4376852;32;34104;-84
2021/12/04 06:30:20;;;;;;;17.70;9.63;;;;;;;0.39;58.91;98799.72;4355440;32;33989;-84
2021/12/04 06:32:50;;;;;;;20.70;10.70;;;;;;;0.55;59.17;98792.78;4364653;32;33906;-87
2021/12/04 06:35:18;;;;;;;19.33;9.52;;;;;;;0.39;59.74;98794.63;4369238;32;33971;-85
2021/12/04 06:37:48;;;;;;;19.05;10.50;;;;;;;0.64;59.30;98798.28;4347994;32;34133;-84
2021/12/04 06:40:17;;;;;;;16.70;9.70;;;;;;;0.59;58.89;98799.78;4338923;32;33152;-84
2021/12/04 06:42:45;;;;;;;19.48;9.85;;;;;;;0.50;58.88;98790.03;4351012;32;33377;-85
2021/12/04 06:45:13;;;;;;;14.87;8.95;;;;;;;0.30;59.40;98786.53;4361721;32;34045;-85
2021/12/04 06:47:47;;;;;;;22.02;10.65;;;;;;;0.66;58.77;98789.91;4362031;32;34118;-84
2021/12/04 06:50:24;;;;;;;17.98;10.13;;;;;;;0.79;58.04;98783.69;4358897;32;35038;-85
2021/12/04 06:52:51;;;;;;;14.57;8.90;;;;;;;0.72;57.86;98776.59;4361550;32;32869;-84
2021/12/04 06:55:26;;;;;;;17.05;9.85;;;;;;;0.68;58.51;98784.88;4348052;32;34653;-84
2021/12/04 06:57:54;;;;;;;17.42;9.52;;;;;;;0.63;58.49;98784.66;4362323;32;35153;-84
2021/12/04 07:00:23;;;;;;;16.77;9.23;;;;;;;0.74;58.56;98790.25;4371374;32;33992;-85
2021/12/04 07:02:50;;;;;;;16.85;10.00;;;;;;;0.57;58.88;98781.84;4376187;32;33253;-83
2021/12/04 07:05:18;;;;;;;17.73;9.55;;;;;;;0.65;59.23;98789.84;4376577;32;33930;-85
2021/12/04 07:07:46;;;;;;;17.83;9.38;;;;;;;0.66;59.34;98776.28;4376314;32;34262;-85
2021/12/04 07:10:13;;;;;;;17.37;8.70;;;;;;;0.76;59.20;98763.16;4375610;32;34076;-85
2021/12/04 07:12:41;;;;;;;16.12;8.60;;;;;;;0.59;59.58;98764.06;4375152;32;34106;-85
2021/12/04 07:15:10;;;;;;;15.68;8.70;;;;;;;0.69;59.53;98766.22;4364485;32;34847;-86
2021/12/04 07:17:38;;;;;;;17.67;10.57;;;;;;;0.75;59.58;98773.28;4362980;32;34537;-87
2021/12/04 07:20:09;;;;;;;24.55;13.62;;;;;;;0.78;59.04;98764.09;4373788;32;34756;-88
2021/12/04 07:22:37;;;;;;;25.20;13.62;;;;;;;0.80;59.14;98759.94;4347954;32;33698;-87
2021/12/04 07:25:05;;;;;;;30.73;17.73;;;;;;;0.64;60.00;98766.00;4361673;32;33202;-88
2021/12/04 07:27:32;;;;;;;35.80;19.95;;;;;;;0.96;59.27;98757.25;4361683;32;35045;-90
2021/12/04 07:30:00;;;;;;;23.87;13.95;;;;;;;0.89;59.63;98750.13;4361384;32;34033;-87
2021/12/04 07:32:28;;;;;;;24.92;13.30;;;;;;;1.05;59.63;98740.56;4361597;32;33181;-85
2021/12/04 07:34:55;;;;;;;26.08;13.65;;;;;;;1.05;59.57;98738.88;4360041;32;35143;-86
2021/12/04 07:37:23;;;;;;;24.65;12.80;;;;;;;0.96;60.01;98739.38;4348009;32;33530;-86
2021/12/04 07:39:51;;;;;;;24.73;14.57;;;;;;;1.18;59.53;98738.63;4347879;32;34265;-86
2021/12/04 07:42:18;;;;;;;23.85;14.05;;;;;;;1.16;59.62;98736.81;4366163;32;33911;-88
2021/12/04 07:44:46;;;;;;;21.73;12.80;;;;;;;1.26;59.67;98735.53;4362438;32;33698;-86
2021/12/04 07:47:14;;;;;;;25.42;14.27;;;;;;;1.32;59.89;98715.34;4350600;32;33847;-87
2021/12/04 07:49:43;;;;;;;24.50;14.77;;;;;;;1.27;60.16;98722.81;4375038;32;34737;-85
2021/12/04 07:52:11;;;;;;;22.77;13.13;;;;;;;1.19;60.60;98729.28;4372996;32;33299;-88
2021/12/04 07:54:38;;;;;;;21.05;13.13;;;;;;;1.29;60.00;98723.75;4362325;32;33785;-87
2021/12/04 07:57:06;;;;;;;21.90;13.73;;;;;;;1.27;60.10;98722.81;4351304;32;34015;-88
2021/12/04 07:59:33;;;;;;;22.48;14.00;;;;;;;1.21;60.58;98727.66;4347822;32;33991;-87
2021/12/04 08:02:01;;;;;;;25.25;15.93;;;;;;;1.40;60.20;98724.19;4349757;32;33570;-87
2021/12/04 08:04:29;;;;;;;23.15;14.38;;;;;;;1.40;59.98;98727.66;4356530;32;34741;-87
2021/12/04 08:06:56;;;;;;;24.17;14.35;;;;;;;1.43;60.53;98725.19;4372061;32;34273;-88
2021/12/04 08:09:23;;;;;;;23.48;14.60;;;;;;;1.38;61.04;98715.59;4375483;32;34497;-89
2021/12/04 08:11:51;;;;;;;28.05;15.73;;;;;;;1.26;61.47;98736.41;4363113;32;33480;-87
2021/12/04 08:14:19;;;;;;;27.98;15.88;;;;;;;1.45;60.71;98725.28;4353197;32;33203;-88
2021/12/04 08:16:47;;;;;;;24.23;15.32;;;;;;;1.58;60.27;98730.06;4375826;32;34424;-85
2021/12/04 08:19:14;;;;;;;29.87;17.48;;;;;;;1.68;60.10;98726.22;4372907;32;34863;-87
2021/12/04 08:21:42;;;;;;;29.23;16.52;;;;;;;1.67;60.40;98724.47;4357866;32;33518;-87
2021/12/04 08:24:09;;;;;;;26.48;16.25;;;;;;;1.70;60.65;98724.56;4352355;32;33902;-87
2021/12/04 08:26:38;;;;;;;25.60;16.58;;;;;;;1.58;61.02;98724.94;4361634;32;35076;-86
2021/12/04 08:29:06;;;;;;;31.70;18.37;;;;;;;1.79;60.64;98735.19;4355649;32;33048;-85
2021/12/04 08:31:34;;;;;;;26.17;16.92;;;;;;;1.85;60.63;98725.19;4348745;32;33867;-86
2021/12/04 08:34:02;;;;;;;30.08;18.00;;;;;;;1.51;62.14;98729.75;4361589;32;33544;-86
2021/12/04 08:36:32;;;;;;;37.55;26.87;;;;;;;1.69;61.82;98730.50;4373755;32;34769;-85
2021/12/04 08:39:02;;;;;;;29.80;18.33;;;;;;;1.95;61.16;98727.31;4350972;32;33779;-86
2021/12/04 08:41:30;;;;;;;28.67;17.20;;;;;;;1.81;62.10;98722.47;4367470;32;33443;-86
2021/12/04 08:43:57;;;;;;;30.02;17.15;;;;;;;1.97;62.10;98718.81;4362159;32;33993;-85
2021/12/04 08:46:25;;;;;;;31.15;18.87;;;;;;;1.79;63.20;98714.75;4370558;32;34640;-87
2021/12/04 08:48:54;;;;;;;36.80;19.62;;;;;;;1.90;63.28;98718.59;4375508;32;34687;-84
2021/12/04 08:51:24;;;;;;;31.17;18.98;;;;;;;1.98;63.61;98710.34;4361404;32;34389;-87
2021/12/04 08:53:52;;;;;;;34.38;18.60;;;;;;;2.13;63.30;98721.19;4363227;32;34697;-88
2021/12/04 08:56:20;;;;;;;33.05;19.52;;;;;;;2.29;63.09;98714.97;4370517;32;34058;-87
2021/12/04 08:58:48;;;;;;;32.58;19.45;;;;;;;2.46;62.59;98707.91;4371585;32;34028;-87
2021/12/04 09:01:24;;;;;;;34.58;21.67;;;;;;;2.52;61.85;98711.56;4362400;32;33358;-87
2021/12/04 09:03:59;;;;;;;33.88;20.83;;;;;;;2.41;62.24;98713.72;4361814;32;33710;-87
2021/12/04 09:06:27;;;;;;;32.70;20.40;;;;;;;2.49;62.57;98710.59;4349242;32;34884;-86
2021/12/04 09:08:55;;;;;;;31.48;19.70;;;;;;;2.60;62.43;98704.19;4360947;32;34952;-86
2021/12/04 09:11:26;;;;;;;31.77;20.02;;;;;;;2.72;62.30;98699.50;4345033;32;33474;-88
2021/12/04 09:13:55;;;;;;;31.00;17.00;;;;;;;2.67;60.85;98695.91;4368659;32;34622;-88
2021/12/04 09:16:24;;;;;;;29.77;17.85;;;;;;;2.02;61.79;98702.00;4334859;32;32707;-88
2021/12/04 09:18:52;;;;;;;34.17;20.48;;;;;;;1.51;63.29;98701.66;4360367;32;34427;-86
2021/12/04 09:21:20;;;;;;;44.75;27.65;;;;;;;1.99;62.92;98689.97;4364886;32;33268;-87
2021/12/04 09:23:52;;;;;;;34.22;20.70;;;;;;;2.05;62.68;98691.91;4371333;32;34655;-87
2021/12/04 09:26:37;;;;;;;40.28;22.40;;;;;;;2.35;61.91;98681.94;4346204;32;35011;-88
2021/12/04 09:29:14;;;;;;;34.90;21.12;;;;;;;2.84;60.24;98669.25;4370349;32;33922;-89
2021/12/04 09:31:56;;;;;;;34.67;22.27;;;;;;;2.77;59.91;98657.03;4348729;32;34257;-89
2021/12/04 10:02:07;;;;;;;38.70;22.40;;;;;;;2.37;60.98;98640.25;4346742;32;32576;-84
2021/12/04 10:16:02;;;;;;;36.50;21.45;;;;;;;1.81;61.46;98608.31;4350239;32;33647;-86
2021/12/04 10:34:35;;;;;;;36.85;21.25;;;;;;;2.14;60.39;98584.84;4375050;32;34007;-87
2021/12/04 10:37:08;;;;;;;39.47;22.40;;;;;;;2.50;59.77;98582.72;4361041;32;33206;-84
2021/12/04 10:39:35;;;;;;;40.40;22.60;;;;;;;1.94;61.03;98573.88;4360884;32;34158;-86
2021/12/04 10:42:07;;;;;;;38.50;21.98;;;;;;;2.55;60.55;98563.28;4374653;32;34301;-84
2021/12/04 10:44:41;;;;;;;36.20;20.25;;;;;;;2.28;60.13;98558.06;4361059;32;34779;-84
2021/12/04 10:47:15;;;;;;;31.45;19.55;;;;;;;1.67;61.67;98560.94;4346961;32;33601;-86
2021/12/04 10:52:34;;;;;;;35.78;20.50;;;;;;;2.30;61.21;98543.63;4360822;32;33794;-87
2021/12/04 10:55:24;;;;;;;39.20;22.30;;;;;;;2.35;59.34;98537.03;4374452;32;34520;-85
2021/12/04 11:00:38;;;;;;;43.63;23.58;;;;;;;2.19;59.41;98529.59;4361067;32;34618;-87
2021/12/04 11:03:19;;;;;;;40.47;21.83;;;;;;;2.04;60.91;98529.06;4365686;32;34248;-85
2021/12/04 11:06:18;;;;;;;38.15;21.40;;;;;;;2.08;60.24;98531.78;4347078;32;34554;-85
2021/12/04 11:22:30;;;;;;;32.35;16.77;;;;;;;2.09;57.88;98509.66;4361355;32;35060;-87
2021/12/04 11:41:59;;;;;;;34.25;17.67;;;;;;;2.36;55.92;98469.69;4361907;32;34344;-87
2021/12/04 11:44:31;;;;;;;31.73;17.42;;;;;;;2.63;55.49;98461.19;4336971;32;32732;-89
2021/12/04 11:46:59;;;;;;;28.58;17.45;;;;;;;2.99;55.07;98453.78;4342518;32;34086;-88
2021/12/04 11:49:32;;;;;;;25.05;12.82;;;;;;;2.99;55.48;98453.78;4373803;32;34721;-89
2021/12/04 11:52:04;;;;;;;26.17;13.18;;;;;;;2.52;52.58;98459.97;4361717;32;34504;-87
2021/12/04 11:54:43;;;;;;;21.05;12.75;;;;;;;2.44;53.90;98447.78;4354369;32;33712;-89
2021/12/04 11:57:12;;;;;;;19.85;11.88;;;;;;;2.39;53.34;98444.22;4367804;32;33773;-87
2021/12/04 11:59:41;;;;;;;23.20;12.57;;;;;;;2.53;52.77;98456.56;4361578;32;33661;-87
2021/12/04 12:02:17;;;;;;;21.27;13.73;;;;;;;2.63;53.02;98450.94;4350102;32;32716;-86
2021/12/04 12:04:49;;;;;;;21.77;14.30;;;;;;;2.20;53.58;98436.75;4362604;32;34010;-88
2021/12/04 12:07:22;;;;;;;23.25;13.13;;;;;;;2.23;53.90;98439.37;4349224;32;33741;-87
2021/12/04 12:10:10;;;;;;;22.75;13.65;;;;;;;2.63;52.36;98438.16;4363399;32;33937;-88
2021/12/04 12:12:40;;;;;;;24.67;13.43;;;;;;;2.57;52.61;98435.38;4370383;32;33455;-89
2021/12/04 12:15:31;;;;;;;20.42;12.90;;;;;;;2.52;53.26;98442.06;4347486;32;34644;-89
2021/12/04 12:18:14;;;;;;;22.90;14.93;;;;;;;2.64;53.17;98430.50;4350875;32;33572;-90
2021/12/04 12:20:58;;;;;;;24.08;15.05;;;;;;;2.65;53.23;98433.94;4353746;32;34279;-90
2021/12/04 12:23:30;;;;;;;23.15;13.43;;;;;;;2.83;52.84;98416.59;4350757;32;34224;-89
2021/12/04 12:37:15;;;;;;;26.55;15.70;;;;;;;2.64;54.26;98425.41;4374615;32;33555;-91
2021/12/04 12:39:52;;;;;;;28.12;15.90;;;;;;;2.41;55.14;98416.97;4376058;32;35637;-90
2021/12/04 12:42:41;;;;;;;29.17;17.15;;;;;;;2.34;55.77;98420.16;4376036;32;34173;-89
2021/12/04 12:45:15;;;;;;;29.37;17.83;;;;;;;2.62;55.52;98408.28;4361640;32;33350;-88
2021/12/04 12:47:53;;;;;;;29.90;19.30;;;;;;;2.56;55.81;98400.41;4361087;32;34941;-89
2021/12/04 12:50:41;;;;;;;28.33;17.83;;;;;;;2.26;56.92;98400.25;4361641;32;33919;-87
2021/12/04 12:53:19;;;;;;;27.83;16.95;;;;;;;2.38;56.14;98401.53;4360579;32;34639;-88
2021/12/04 12:55:50;;;;;;;26.52;17.50;;;;;;;2.40;56.00;98401.59;4371693;32;33667;-91
2021/12/04 12:58:22;;;;;;;28.38;17.20;;;;;;;2.44;56.19;98401.75;4347907;32;34242;-90
2021/12/04 13:12:51;;;;;;;29.63;18.05;;;;;;;3.31;53.60;98388.19;4354857;32;35183;-90
2021/12/04 13:15:39;;;;;;;33.33;19.67;;;;;;;3.33;55.32;98398.47;4364737;32;33577;-90
2021/12/04 13:18:12;;;;;;;30.27;18.75;;;;;;;3.21;54.07;98388.72;4361750;32;34372;-91
2021/12/04 13:20:40;;;;;;;30.20;19.42;;;;;;;2.98;54.48;98389.75;4357202;32;33669;-85
2021/12/04 13:23:12;;;;;;;32.47;19.87;;;;;;;3.12;55.24;98393.59;4370810;32;33693;-85
2021/12/04 13:25:58;;;;;;;30.17;19.60;;;;;;;3.13;54.79;98388.50;4375439;32;33603;-87
2021/12/04 13:28:28;;;;;;;33.60;21.52;;;;;;;2.98;54.73;98384.63;4361304;32;33208;-90
2021/12/04 13:31:00;;;;;;;32.83;19.62;;;;;;;2.87;55.33;98392.84;4361707;32;33874;-86
2021/12/04 13:33:30;;;;;;;29.80;20.23;;;;;;;3.22;54.66;98379.34;4359131;32;33740;-85
2021/12/04 13:35:57;;;;;;;33.03;20.00;;;;;;;3.06;55.04;98378.91;4360225;32;34685;-87
2021/12/04 13:38:27;;;;;;;28.50;17.77;;;;;;;2.96;55.13;98376.03;4347732;32;33472;-86
2021/12/04 13:40:56;;;;;;;30.12;18.80;;;;;;;3.28;55.09;98370.16;4346747;32;33778;-87
2021/12/04 13:43:24;;;;;;;27.75;16.05;;;;;;;3.44;53.77;98370.59;4360807;32;33710;-90
2021/12/04 13:45:57;;;;;;;25.95;16.62;;;;;;;3.14;52.11;98363.75;4347846;32;34175;-90
2021/12/04 13:48:27;;;;;;;26.05;12.98;;;;;;;3.50;52.99;98360.53;4363134;32;34686;-88
2021/12/04 13:50:56;;;;;;;23.83;15.20;;;;;;;3.42;51.09;98356.06;4348406;32;32996;-89
2021/12/04 13:53:27;;;;;;;28.67;17.17;;;;;;;3.68;51.30;98349.91;4355309;32;34216;-92
2021/12/04 13:56:06;;;;;;;19.45;10.98;;;;;;;3.34;51.00;98342.16;4360547;32;34465;-92
2021/12/04 13:58:34;;;;;;;20.37;12.40;;;;;;;3.16;50.52;98339.06;4355985;32;33373;-93
2021/12/04 14:01:03;;;;;;;19.70;11.30;;;;;;;2.87;52.20;98341.63;4352275;32;34184;-90
2021/12/04 14:03:32;;;;;;;24.75;11.10;;;;;;;2.20;54.44;98337.00;4353408;32;34925;-88
2021/12/04 14:06:01;;;;;;;20.92;12.50;;;;;;;2.58;53.78;98316.87;4347198;32;34557;-91
2021/12/04 14:08:29;;;;;;;20.58;11.63;;;;;;;2.98;53.04;98297.56;4373279;32;34368;-91
2021/12/04 14:10:58;;;;;;;23.98;12.98;;;;;;;2.94;53.63;98296.63;4361400;32;33702;-88
2021/12/04 14:13:25;;;;;;;18.52;12.07;;;;;;;2.74;54.58;98293.47;4362003;32;34111;-90
2021/12/04 14:15:55;;;;;;;22.10;11.73;;;;;;;2.91;53.66;98282.03;4359111;32;34276;-92
2021/12/04 14:18:29;;;;;;;21.10;12.57;;;;;;;2.92;53.63;98288.91;4352012;32;33782;-92
2021/12/04 14:21:00;;;;;;;19.02;12.02;;;;;;;2.82;54.01;98291.16;4365305;32;33399;-90
2021/12/04 14:23:31;;;;;;;28.30;13.07;;;;;;;2.96;53.25;98277.06;4355150;32;34280;-92
2021/12/04 14:26:03;;;;;;;20.15;11.82;;;;;;;2.83;53.64;98283.50;4350832;32;33841;-91
2021/12/04 14:28:34;;;;;;;23.70;13.02;;;;;;;2.83;53.90;98288.63;4349225;32;33408;-92
2021/12/04 14:31:02;;;;;;;21.15;11.93;;;;;;;2.57;54.54;98299.78;4360536;32;34511;-91
2021/12/04 14:33:30;;;;;;;22.00;12.77;;;;;;;2.90;53.19;98292.22;4343121;32;34090;-88
2021/12/04 14:35:58;;;;;;;21.98;12.45;;;;;;;3.00;54.47;98295.94;4353160;32;34182;-91
2021/12/04 14:38:27;;;;;;;20.70;12.50;;;;;;;3.11;54.56;98299.66;4364878;32;33841;-90